Impacts TAF Board INFO
IDs:

KPIT - Pittsburgh Intl, PA, US

Issued at 2320 UTC 03 Dec 2016
Updated at 2352 UTC 03 Dec 2016
Potential Impact None Slight Moderate High
Time2334Z 04/00Z 04/01Z 04/02Z 04/03Z 04/04Z 04/05Z 04/06Z 04/07Z 04/08Z 04/09Z 04/10Z 04/11Z 04/12Z
Type OBS PRVL PRVL PRVL PRVL PRVL PRVL PRVL PRVL PRVL PRVL PRVL PRVL PRVL
VIS 10 >6 >6 >6 >6 >6 >6 >6 >6 >6 >6 >6 >6 >6
CIG 36 29 29 35 35 35 35 35 35 35 35 35 35 90
Cover OVC OVC OVC OVC OVC OVC OVC OVC OVC OVC OVC OVC OVC OVC
FltCat VFR MVFR MVFR VFR VFR VFR VFR VFR VFR VFR VFR VFR VFR VFR
WX -- -- -- -- -- -- -- -- -- -- -- -- -- --
WDir 240 260 260 VRB VRB VRB VRB VRB VRB VRB VRB VRB VRB 160
WSpd 4 4 4 3 3 3 3 3 3 3 3 3 3 3
WGst -- -- -- -- -- -- -- -- -- -- -- -- -- --

Raw TAF
KPIT 032320Z 0400/0506 26004KT P6SM SCT020 OVC029
  FM040200 VRB03KT P6SM OVC035
  FM041200 16003KT P6SM OVC090
  FM050300 14004KT 6SM -SHSN OVC050


Raw METAR
KPIT 032334Z 24004KT 10SM SCT029 OVC036 03/M02 A3027 RMK AO2 T00331017
KPIT 032251Z 26004KT 10SM SCT020 OVC029 03/M02 A3027 RMK AO2 SLP267 T00331017
KPIT 032151Z 25005KT 10SM SCT021 OVC029 03/M02 A3028 RMK AO2 SLP271 T00331017
KPIT 032051Z 28007KT 10SM OVC022 04/M02 A3028 RMK AO2 SLP272 T00391017 53015

METAR Board
Radar Display
Forecast Discussion